sensor_id;sensor_type;location;lat;lon;timestamp;pressure;altitude;pressure_sealevel;temperature;humidity
15382;BME280;7789;51.364;12.358;2022-11-23T00:04:17;99004.91;;;6.07;100.00
15382;BME280;7789;51.364;12.358;2022-11-23T00:09:48;99000.28;;;6.11;100.00
15382;BME280;7789;51.364;12.358;2022-11-23T00:15:13;99005.47;;;6.11;100.00
15382;BME280;7789;51.364;12.358;2022-11-23T00:20:44;98999.34;;;6.12;100.00
15382;BME280;7789;51.364;12.358;2022-11-23T00:26:06;98994.16;;;6.12;100.00
15382;BME280;7789;51.364;12.358;2022-11-23T00:31:37;98997.72;;;6.20;100.00
15382;BME280;7789;51.364;12.358;2022-11-23T00:37:12;99001.13;;;6.21;100.00
15382;BME280;7789;51.364;12.358;2022-11-23T00:42:36;99004.03;;;6.27;100.00
15382;BME280;7789;51.364;12.358;2022-11-23T00:48:09;99008.13;;;6.30;100.00
15382;BME280;7789;51.364;12.358;2022-11-23T00:53:59;99012.78;;;6.36;100.00
15382;BME280;7789;51.364;12.358;2022-11-23T00:59:42;99016.06;;;6.38;100.00
15382;BME280;7789;51.364;12.358;2022-11-23T01:05:09;99014.59;;;6.45;100.00
15382;BME280;7789;51.364;12.358;2022-11-23T01:10:45;99015.16;;;6.48;100.00
15382;BME280;7789;51.364;12.358;2022-11-23T01:16:15;99012.16;;;6.53;100.00
15382;BME280;7789;51.364;12.358;2022-11-23T01:21:48;99011.34;;;6.52;100.00
15382;BME280;7789;51.364;12.358;2022-11-23T01:27:16;99005.47;;;6.60;100.00
15382;BME280;7789;51.364;12.358;2022-11-23T01:33:04;99004.53;;;6.61;100.00
15382;BME280;7789;51.364;12.358;2022-11-23T01:38:42;99013.41;;;6.68;100.00
15382;BME280;7789;51.364;12.358;2022-11-23T01:44:41;99015.88;;;6.69;100.00
15382;BME280;7789;51.364;12.358;2022-11-23T01:50:23;99016.44;;;6.73;100.00
15382;BME280;7789;51.364;12.358;2022-11-23T01:56:05;99024.22;;;6.73;100.00
15382;BME280;7789;51.364;12.358;2022-11-23T02:01:31;99018.75;;;6.76;100.00
15382;BME280;7789;51.364;12.358;2022-11-23T02:06:54;99031.31;;;6.80;100.00
15382;BME280;7789;51.364;12.358;2022-11-23T02:12:30;99030.25;;;6.83;100.00
15382;BME280;7789;51.364;12.358;2022-11-23T02:18:14;99023.00;;;6.86;100.00
15382;BME280;7789;51.364;12.358;2022-11-23T02:23:48;99025.88;;;6.83;100.00
15382;BME280;7789;51.364;12.358;2022-11-23T02:29:30;99031.06;;;6.74;100.00
15382;BME280;7789;51.364;12.358;2022-11-23T02:34:59;99025.72;;;6.75;100.00
15382;BME280;7789;51.364;12.358;2022-11-23T02:40:33;99022.16;;;6.76;100.00
15382;BME280;7789;51.364;12.358;2022-11-23T02:46:08;99029.16;;;6.76;100.00
15382;BME280;7789;51.364;12.358;2022-11-23T02:51:33;99028.59;;;6.72;100.00
15382;BME280;7789;51.364;12.358;2022-11-23T02:57:04;99035.41;;;6.73;100.00
15382;BME280;7789;51.364;12.358;2022-11-23T03:02:34;99035.16;;;6.76;100.00
15382;BME280;7789;51.364;12.358;2022-11-23T03:08:02;99044.19;;;6.82;100.00
15382;BME280;7789;51.364;12.358;2022-11-23T03:13:26;99034.75;;;6.90;100.00
15382;BME280;7789;51.364;12.358;2022-11-23T03:19:01;99050.75;;;6.86;100.00
15382;BME280;7789;51.364;12.358;2022-11-23T03:24:28;99053.63;;;6.83;100.00
15382;BME280;7789;51.364;12.358;2022-11-23T03:30:07;99054.59;;;6.91;100.00
15382;BME280;7789;51.364;12.358;2022-11-23T03:35:38;99052.94;;;7.00;100.00
15382;BME280;7789;51.364;12.358;2022-11-23T03:41:12;99053.34;;;7.05;100.00
15382;BME280;7789;51.364;12.358;2022-11-23T03:46:36;99046.13;;;7.08;100.00
15382;BME280;7789;51.364;12.358;2022-11-23T03:52:18;99058.31;;;7.08;100.00
15382;BME280;7789;51.364;12.358;2022-11-23T03:57:41;99055.56;;;7.09;100.00
15382;BME280;7789;51.364;12.358;2022-11-23T04:03:08;99055.72;;;7.08;100.00
15382;BME280;7789;51.364;12.358;2022-11-23T04:08:36;99060.91;;;7.08;100.00
15382;BME280;7789;51.364;12.358;2022-11-23T04:14:17;99061.56;;;7.00;100.00
15382;BME280;7789;51.364;12.358;2022-11-23T04:19:43;99060.06;;;6.98;100.00
15382;BME280;7789;51.364;12.358;2022-11-23T04:25:13;99072.06;;;6.89;100.00
15382;BME280;7789;51.364;12.358;2022-11-23T04:30:39;99062.34;;;6.82;100.00
15382;BME280;7789;51.364;12.358;2022-11-23T04:36:18;99056.06;;;6.75;100.00
15382;BME280;7789;51.364;12.358;2022-11-23T04:41:52;99058.91;;;6.72;100.00
15382;BME280;7789;51.364;12.358;2022-11-23T04:47:23;99055.34;;;6.63;100.00
15382;BME280;7789;51.364;12.358;2022-11-23T04:52:52;99056.84;;;6.56;100.00
15382;BME280;7789;51.364;12.358;2022-11-23T04:58:25;99056.53;;;6.50;100.00
15382;BME280;7789;51.364;12.358;2022-11-23T05:04:09;99058.16;;;6.41;100.00
15382;BME280;7789;51.364;12.358;2022-11-23T05:09:57;99061.13;;;6.37;100.00
15382;BME280;7789;51.364;12.358;2022-11-23T05:15:25;99053.88;;;6.31;100.00
15382;BME280;7789;51.364;12.358;2022-11-23T05:20:49;99059.47;;;6.26;100.00
15382;BME280;7789;51.364;12.358;2022-11-23T05:26:16;99054.13;;;6.18;100.00
15382;BME280;7789;51.364;12.358;2022-11-23T05:31:41;99048.63;;;6.12;100.00
15382;BME280;7789;51.364;12.358;2022-11-23T05:37:09;99048.19;;;6.07;100.00
15382;BME280;7789;51.364;12.358;2022-11-23T05:42:38;99054.84;;;6.00;100.00
15382;BME280;7789;51.364;12.358;2022-11-23T05:48:08;99044.72;;;5.97;100.00
15382;BME280;7789;51.364;12.358;2022-11-23T05:53:36;99053.72;;;5.93;100.00
15382;BME280;7789;51.364;12.358;2022-11-23T05:58:59;99064.34;;;5.90;100.00
15382;BME280;7789;51.364;12.358;2022-11-23T06:04:24;99063.53;;;5.89;100.00
15382;BME280;7789;51.364;12.358;2022-11-23T06:10:00;99058.53;;;5.97;100.00
15382;BME280;7789;51.364;12.358;2022-11-23T06:15:28;99065.59;;;5.95;100.00
15382;BME280;7789;51.364;12.358;2022-11-23T06:21:00;99059.22;;;5.99;100.00
15382;BME280;7789;51.364;12.358;2022-11-23T06:26:31;99059.06;;;6.01;100.00
15382;BME280;7789;51.364;12.358;2022-11-23T06:32:01;99062.06;;;5.96;100.00
15382;BME280;7789;51.364;12.358;2022-11-23T06:37:32;99071.44;;;5.88;100.00
15382;BME280;7789;51.364;12.358;2022-11-23T06:42:59;99072.63;;;5.84;100.00
15382;BME280;7789;51.364;12.358;2022-11-23T06:48:24;99084.78;;;5.83;100.00
15382;BME280;7789;51.364;12.358;2022-11-23T06:54:05;99082.75;;;5.87;100.00
15382;BME280;7789;51.364;12.358;2022-11-23T06:59:34;99089.06;;;5.94;100.00
15382;BME280;7789;51.364;12.358;2022-11-23T07:05:07;99088.25;;;5.93;100.00
15382;BME280;7789;51.364;12.358;2022-11-23T07:10:44;99088.38;;;5.92;100.00
15382;BME280;7789;51.364;12.358;2022-11-23T07:16:12;99096.22;;;6.01;100.00
15382;BME280;7789;51.364;12.358;2022-11-23T07:21:56;99091.03;;;6.01;100.00
15382;BME280;7789;51.364;12.358;2022-11-23T07:27:24;99103.75;;;6.04;100.00
15382;BME280;7789;51.364;12.358;2022-11-23T07:33:13;99101.56;;;6.09;100.00
15382;BME280;7789;51.364;12.358;2022-11-23T07:38:50;99097.91;;;6.12;100.00
15382;BME280;7789;51.364;12.358;2022-11-23T07:44:24;99110.50;;;6.16;100.00
15382;BME280;7789;51.364;12.358;2022-11-23T07:50:01;99117.50;;;6.25;100.00
15382;BME280;7789;51.364;12.358;2022-11-23T07:55:41;99111.66;;;6.33;100.00
15382;BME280;7789;51.364;12.358;2022-11-23T08:01:13;99125.78;;;6.40;100.00
15382;BME280;7789;51.364;12.358;2022-11-23T08:06:40;99129.59;;;6.45;100.00
15382;BME280;7789;51.364;12.358;2022-11-23T08:12:14;99128.75;;;6.65;100.00
15382;BME280;7789;51.364;12.358;2022-11-23T08:17:45;99125.38;;;6.84;100.00
15382;BME280;7789;51.364;12.358;2022-11-23T08:23:18;99120.50;;;7.00;100.00
15382;BME280;7789;51.364;12.358;2022-11-23T08:28:45;99127.50;;;7.18;100.00
15382;BME280;7789;51.364;12.358;2022-11-23T08:34:15;99120.53;;;7.28;100.00
15382;BME280;7789;51.364;12.358;2022-11-23T08:39:51;99115.59;;;7.44;100.00
15382;BME280;7789;51.364;12.358;2022-11-23T08:45:16;99121.75;;;7.62;100.00
15382;BME280;7789;51.364;12.358;2022-11-23T08:50:47;99122.88;;;7.78;100.00
15382;BME280;7789;51.364;12.358;2022-11-23T08:56:14;99125.97;;;7.91;100.00
15382;BME280;7789;51.364;12.358;2022-11-23T09:01:48;99131.31;;;7.99;100.00
15382;BME280;7789;51.364;12.358;2022-11-23T09:07:21;99126.34;;;8.15;100.00
15382;BME280;7789;51.364;12.358;2022-11-23T09:12:44;99133.06;;;8.27;100.00
15382;BME280;7789;51.364;12.358;2022-11-23T09:18:14;99135.91;;;8.43;100.00
15382;BME280;7789;51.364;12.358;2022-11-23T09:23:40;99138.91;;;8.75;100.00
15382;BME280;7789;51.364;12.358;2022-11-23T09:29:06;99147.75;;;8.92;98.95
15382;BME280;7789;51.364;12.358;2022-11-23T09:34:37;99144.00;;;9.04;98.05
15382;BME280;7789;51.364;12.358;2022-11-23T09:40:06;99128.78;;;9.16;97.26
15382;BME280;7789;51.364;12.358;2022-11-23T09:45:35;99129.94;;;9.31;96.48
15382;BME280;7789;51.364;12.358;2022-11-23T09:51:10;99133.97;;;9.43;95.75
15382;BME280;7789;51.364;12.358;2022-11-23T09:56:46;99131.22;;;9.62;95.75
15382;BME280;7789;51.364;12.358;2022-11-23T10:02:20;99128.06;;;9.76;94.87
15382;BME280;7789;51.364;12.358;2022-11-23T10:07:59;99124.44;;;9.95;94.79
15382;BME280;7789;51.364;12.358;2022-11-23T10:13:37;99127.22;;;10.11;93.12
15382;BME280;7789;51.364;12.358;2022-11-23T10:19:12;99129.88;;;10.44;92.88
15382;BME280;7789;51.364;12.358;2022-11-23T10:24:47;99122.50;;;10.40;92.95
15382;BME280;7789;51.364;12.358;2022-11-23T10:30:30;99119.38;;;10.36;91.50
15382;BME280;7789;51.364;12.358;2022-11-23T10:36:01;99116.31;;;10.41;91.24
15382;BME280;7789;51.364;12.358;2022-11-23T10:41:28;99107.84;;;10.47;91.55
15382;BME280;7789;51.364;12.358;2022-11-23T10:46:58;99112.28;;;10.54;89.49
15382;BME280;7789;51.364;12.358;2022-11-23T10:52:27;99097.47;;;10.63;89.15
15382;BME280;7789;51.364;12.358;2022-11-23T10:57:53;99101.56;;;10.65;89.10
15382;BME280;7789;51.364;12.358;2022-11-23T11:03:23;99100.25;;;10.61;87.79
15382;BME280;7789;51.364;12.358;2022-11-23T11:08:49;99104.44;;;10.54;87.77
15382;BME280;7789;51.364;12.358;2022-11-23T11:14:34;99098.81;;;10.67;87.48
15382;BME280;7789;51.364;12.358;2022-11-23T11:20:35;99097.75;;;10.93;86.90
15382;BME280;7789;51.364;12.358;2022-11-23T11:26:12;99099.06;;;10.97;86.46
15382;BME280;7789;51.364;12.358;2022-11-23T11:31:56;99085.53;;;11.02;86.72
15382;BME280;7789;51.364;12.358;2022-11-23T11:37:31;99091.41;;;11.03;86.07
15382;BME280;7789;51.364;12.358;2022-11-23T11:43:04;99089.78;;;11.02;84.89
15382;BME280;7789;51.364;12.358;2022-11-23T11:48:33;99087.50;;;11.07;85.40
15382;BME280;7789;51.364;12.358;2022-11-23T11:54:11;99087.03;;;11.12;84.88
15382;BME280;7789;51.364;12.358;2022-11-23T11:59:47;99088.97;;;11.10;85.66
15382;BME280;7789;51.364;12.358;2022-11-23T12:05:23;99092.53;;;11.01;85.58
15382;BME280;7789;51.364;12.358;2022-11-23T12:10:57;99093.72;;;11.06;85.28
15382;BME280;7789;51.364;12.358;2022-11-23T12:16:34;99089.47;;;11.13;85.39
15382;BME280;7789;51.364;12.358;2022-11-23T12:22:46;99081.47;;;11.23;85.23
15382;BME280;7789;51.364;12.358;2022-11-23T12:28:52;99085.28;;;11.36;85.03
15382;BME280;7789;51.364;12.358;2022-11-23T12:34:59;99081.19;;;11.42;84.96
15382;BME280;7789;51.364;12.358;2022-11-23T12:40:39;99079.06;;;11.37;84.77
15382;BME280;7789;51.364;12.358;2022-11-23T12:46:18;99081.34;;;11.32;84.60
15382;BME280;7789;51.364;12.358;2022-11-23T12:51:58;99081.50;;;11.39;83.88
15382;BME280;7789;51.364;12.358;2022-11-23T12:57:38;99088.84;;;11.43;83.84
15382;BME280;7789;51.364;12.358;2022-11-23T13:09:38;99076.25;;;11.39;83.79
15382;BME280;7789;51.364;12.358;2022-11-23T13:15:23;99075.94;;;11.34;84.21
15382;BME280;7789;51.364;12.358;2022-11-23T13:21:17;99079.34;;;11.26;84.70
15382;BME280;7789;51.364;12.358;2022-11-23T13:33:24;99080.19;;;11.27;83.88
15382;BME280;7789;51.364;12.358;2022-11-23T13:39:04;99077.72;;;11.25;84.63
15382;BME280;7789;51.364;12.358;2022-11-23T13:44:32;99067.41;;;11.16;83.88
15382;BME280;7789;51.364;12.358;2022-11-23T13:55:44;99071.63;;;11.01;84.72
15382;BME280;7789;51.364;12.358;2022-11-23T14:07:35;99068.81;;;10.87;85.30
15382;BME280;7789;51.364;12.358;2022-11-23T14:13:15;99066.81;;;10.81;86.21
15382;BME280;7789;51.364;12.358;2022-11-23T14:19:02;99073.84;;;10.80;85.80
15382;BME280;7789;51.364;12.358;2022-11-23T14:25:12;99071.06;;;10.74;86.87
15382;BME280;7789;51.364;12.358;2022-11-23T14:31:03;99072.50;;;10.68;86.54
15382;BME280;7789;51.364;12.358;2022-11-23T14:36:38;99073.66;;;10.66;87.08
15382;BME280;7789;51.364;12.358;2022-11-23T14:42:13;99073.94;;;10.63;87.79
15382;BME280;7789;51.364;12.358;2022-11-23T14:47:44;99076.88;;;10.60;87.87
15382;BME280;7789;51.364;12.358;2022-11-23T14:53:10;99080.94;;;10.54;87.22
15382;BME280;7789;51.364;12.358;2022-11-23T14:58:35;99090.72;;;10.52;87.77
15382;BME280;7789;51.364;12.358;2022-11-23T15:04:07;99090.06;;;10.50;88.13
15382;BME280;7789;51.364;12.358;2022-11-23T15:09:43;99097.38;;;10.47;88.43
15382;BME280;7789;51.364;12.358;2022-11-23T15:15:29;99091.00;;;10.41;87.64
15382;BME280;7789;51.364;12.358;2022-11-23T15:21:16;99097.50;;;10.37;88.37
15382;BME280;7789;51.364;12.358;2022-11-23T15:27:03;99099.25;;;10.29;88.25
15382;BME280;7789;51.364;12.358;2022-11-23T15:32:47;99100.72;;;10.23;88.62
15382;BME280;7789;51.364;12.358;2022-11-23T15:38:23;99106.53;;;10.17;87.74
15382;BME280;7789;51.364;12.358;2022-11-23T15:44:00;99106.31;;;10.11;88.04
15382;BME280;7789;51.364;12.358;2022-11-23T15:49:25;99102.03;;;10.02;88.63
15382;BME280;7789;51.364;12.358;2022-11-23T15:55:03;99104.19;;;9.89;89.06
15382;BME280;7789;51.364;12.358;2022-11-23T16:00:38;99103.75;;;9.76;89.39
15382;BME280;7789;51.364;12.358;2022-11-23T16:06:15;99101.09;;;9.68;90.18
15382;BME280;7789;51.364;12.358;2022-11-23T16:11:57;99105.56;;;9.58;90.41
15382;BME280;7789;51.364;12.358;2022-11-23T16:17:33;99110.38;;;9.45;91.12
15382;BME280;7789;51.364;12.358;2022-11-23T16:23:04;99111.25;;;9.36;91.79
15382;BME280;7789;51.364;12.358;2022-11-23T16:28:54;99104.28;;;9.27;92.13
15382;BME280;7789;51.364;12.358;2022-11-23T16:34:38;99109.56;;;9.17;92.23
15382;BME280;7789;51.364;12.358;2022-11-23T16:40:09;99110.63;;;9.07;93.39
15382;BME280;7789;51.364;12.358;2022-11-23T16:45:46;99119.16;;;9.00;93.96
15382;BME280;7789;51.364;12.358;2022-11-23T16:51:19;99126.22;;;8.90;93.74
15382;BME280;7789;51.364;12.358;2022-11-23T16:56:51;99131.19;;;8.83;94.10
15382;BME280;7789;51.364;12.358;2022-11-23T17:02:32;99139.72;;;8.76;94.36
15382;BME280;7789;51.364;12.358;2022-11-23T17:08:00;99142.09;;;8.69;95.15
15382;BME280;7789;51.364;12.358;2022-11-23T17:19:19;99133.78;;;8.56;95.34
15382;BME280;7789;51.364;12.358;2022-11-23T17:24:48;99132.84;;;8.48;95.47
15382;BME280;7789;51.364;12.358;2022-11-23T17:30:38;99137.81;;;8.41;95.92
15382;BME280;7789;51.364;12.358;2022-11-23T17:36:08;99145.09;;;8.38;95.74
15382;BME280;7789;51.364;12.358;2022-11-23T17:41:44;99151.97;;;8.29;95.85
15382;BME280;7789;51.364;12.358;2022-11-23T17:47:16;99155.13;;;8.23;95.81
15382;BME280;7789;51.364;12.358;2022-11-23T17:52:45;99154.81;;;8.17;95.64
15382;BME280;7789;51.364;12.358;2022-11-23T17:58:10;99167.59;;;8.10;95.47
15382;BME280;7789;51.364;12.358;2022-11-23T18:03:44;99168.00;;;8.06;95.45
15382;BME280;7789;51.364;12.358;2022-11-23T18:09:16;99175.44;;;8.01;95.56
15382;BME280;7789;51.364;12.358;2022-11-23T18:15:08;99187.19;;;7.95;95.25
15382;BME280;7789;51.364;12.358;2022-11-23T18:20:35;99181.16;;;7.85;95.16
15382;BME280;7789;51.364;12.358;2022-11-23T18:26:13;99182.53;;;7.80;94.73
15382;BME280;7789;51.364;12.358;2022-11-23T18:31:46;99189.94;;;7.75;94.57
15382;BME280;7789;51.364;12.358;2022-11-23T18:37:35;99193.22;;;7.67;94.97
15382;BME280;7789;51.364;12.358;2022-11-23T18:43:02;99201.56;;;7.61;94.91
15382;BME280;7789;51.364;12.358;2022-11-23T18:48:36;99202.81;;;7.57;94.90
15382;BME280;7789;51.364;12.358;2022-11-23T18:54:03;99211.28;;;7.50;95.02
15382;BME280;7789;51.364;12.358;2022-11-23T18:59:40;99204.97;;;7.43;95.29
15382;BME280;7789;51.364;12.358;2022-11-23T19:05:18;99212.47;;;7.36;95.18
15382;BME280;7789;51.364;12.358;2022-11-23T19:10:53;99218.22;;;7.30;95.52
15382;BME280;7789;51.364;12.358;2022-11-23T19:16:20;99216.38;;;7.22;95.46
15382;BME280;7789;51.364;12.358;2022-11-23T19:21:51;99229.13;;;7.15;95.51
15382;BME280;7789;51.364;12.358;2022-11-23T19:27:58;99244.66;;;7.06;95.49
15382;BME280;7789;51.364;12.358;2022-11-23T19:33:54;99246.97;;;6.99;94.59
15382;BME280;7789;51.364;12.358;2022-11-23T19:39:20;99251.28;;;6.89;94.72
15382;BME280;7789;51.364;12.358;2022-11-23T19:50:53;99262.84;;;6.76;95.62
15382;BME280;7789;51.364;12.358;2022-11-23T19:56:25;99261.84;;;6.67;95.71
15382;BME280;7789;51.364;12.358;2022-11-23T20:01:52;99265.88;;;6.60;94.61
15382;BME280;7789;51.364;12.358;2022-11-23T20:07:30;99270.75;;;6.54;95.56
15382;BME280;7789;51.364;12.358;2022-11-23T20:12:55;99276.59;;;6.46;95.92
15382;BME280;7789;51.364;12.358;2022-11-23T20:18:23;99278.06;;;6.39;95.77
15382;BME280;7789;51.364;12.358;2022-11-23T20:24:00;99291.28;;;6.36;96.13
15382;BME280;7789;51.364;12.358;2022-11-23T20:29:40;99291.81;;;6.30;96.40
15382;BME280;7789;51.364;12.358;2022-11-23T20:35:20;99290.78;;;6.22;96.57
15382;BME280;7789;51.364;12.358;2022-11-23T20:40:51;99297.28;;;6.16;97.04
15382;BME280;7789;51.364;12.358;2022-11-23T20:46:35;99303.53;;;6.14;96.93
15382;BME280;7789;51.364;12.358;2022-11-23T20:52:24;99297.31;;;6.05;97.29
15382;BME280;7789;51.364;12.358;2022-11-23T20:58:10;99307.50;;;5.97;97.65
15382;BME280;7789;51.364;12.358;2022-11-23T21:03:40;99307.97;;;5.91;97.70
15382;BME280;7789;51.364;12.358;2022-11-23T21:09:05;99312.00;;;5.84;97.71
15382;BME280;7789;51.364;12.358;2022-11-23T21:14:59;99306.94;;;5.83;97.98
15382;BME280;7789;51.364;12.358;2022-11-23T21:20:27;99322.13;;;5.76;98.36
15382;BME280;7789;51.364;12.358;2022-11-23T21:26:02;99328.50;;;5.72;98.91
15382;BME280;7789;51.364;12.358;2022-11-23T21:31:39;99332.13;;;5.70;99.02
15382;BME280;7789;51.364;12.358;2022-11-23T21:37:21;99331.56;;;5.66;98.92
15382;BME280;7789;51.364;12.358;2022-11-23T21:42:58;99330.97;;;5.63;99.34
15382;BME280;7789;51.364;12.358;2022-11-23T21:48:50;99349.25;;;5.61;99.54
15382;BME280;7789;51.364;12.358;2022-11-23T21:54:18;99347.84;;;5.57;99.55
15382;BME280;7789;51.364;12.358;2022-11-23T21:59:53;99348.06;;;5.54;100.00
15382;BME280;7789;51.364;12.358;2022-11-23T22:05:24;99340.41;;;5.53;100.00
15382;BME280;7789;51.364;12.358;2022-11-23T22:11:02;99350.91;;;5.51;100.00
15382;BME280;7789;51.364;12.358;2022-11-23T22:16:35;99353.75;;;5.48;100.00
15382;BME280;7789;51.364;12.358;2022-11-23T22:22:12;99351.97;;;5.49;100.00
15382;BME280;7789;51.364;12.358;2022-11-23T22:27:55;99349.50;;;5.47;100.00
15382;BME280;7789;51.364;12.358;2022-11-23T22:33:57;99357.38;;;5.46;100.00
15382;BME280;7789;51.364;12.358;2022-11-23T22:39:29;99371.28;;;5.45;100.00
15382;BME280;7789;51.364;12.358;2022-11-23T22:44:57;99364.47;;;5.44;100.00
15382;BME280;7789;51.364;12.358;2022-11-23T22:50:37;99376.56;;;5.43;100.00
15382;BME280;7789;51.364;12.358;2022-11-23T22:56:20;99373.41;;;5.40;100.00
15382;BME280;7789;51.364;12.358;2022-11-23T23:01:47;99375.16;;;5.39;100.00
15382;BME280;7789;51.364;12.358;2022-11-23T23:07:30;99381.44;;;5.37;100.00
15382;BME280;7789;51.364;12.358;2022-11-23T23:12:55;99379.75;;;5.36;100.00
15382;BME280;7789;51.364;12.358;2022-11-23T23:18:32;99392.72;;;5.36;100.00
15382;BME280;7789;51.364;12.358;2022-11-23T23:24:11;99393.09;;;5.32;100.00
15382;BME280;7789;51.364;12.358;2022-11-23T23:29:52;99404.38;;;5.31;100.00
15382;BME280;7789;51.364;12.358;2022-11-23T23:35:30;99413.09;;;5.30;100.00
15382;BME280;7789;51.364;12.358;2022-11-23T23:41:00;99414.50;;;5.34;100.00
15382;BME280;7789;51.364;12.358;2022-11-23T23:46:29;99402.03;;;5.38;100.00
15382;BME280;7789;51.364;12.358;2022-11-23T23:51:55;99405.31;;;5.40;100.00
15382;BME280;7789;51.364;12.358;2022-11-23T23:57:28;99408.16;;;5.38;100.00
